sensor_id;sensor_type;location;lat;lon;timestamp;temperature;humidity
17296;DHT22;8766;51.480;6.872;2023-03-01T00:02:11;2.10;69.60
17296;DHT22;8766;51.480;6.872;2023-03-01T00:04:38;2.10;69.60
17296;DHT22;8766;51.480;6.872;2023-03-01T00:07:04;2.10;69.70
17296;DHT22;8766;51.480;6.872;2023-03-01T00:09:31;2.10;69.60
17296;DHT22;8766;51.480;6.872;2023-03-01T00:12:00;2.10;69.60
17296;DHT22;8766;51.480;6.872;2023-03-01T00:14:27;2.10;69.60
17296;DHT22;8766;51.480;6.872;2023-03-01T00:16:53;2.10;69.60
17296;DHT22;8766;51.480;6.872;2023-03-01T00:19:21;2.10;69.60
17296;DHT22;8766;51.480;6.872;2023-03-01T00:21:48;2.00;69.60
17296;DHT22;8766;51.480;6.872;2023-03-01T00:24:15;2.00;69.60
17296;DHT22;8766;51.480;6.872;2023-03-01T00:26:42;2.00;69.70
17296;DHT22;8766;51.480;6.872;2023-03-01T00:29:10;1.90;69.70
17296;DHT22;8766;51.480;6.872;2023-03-01T00:31:37;1.90;69.80
17296;DHT22;8766;51.480;6.872;2023-03-01T00:34:05;1.90;69.80
17296;DHT22;8766;51.480;6.872;2023-03-01T00:36:33;1.90;69.90
17296;DHT22;8766;51.480;6.872;2023-03-01T00:39:01;1.80;69.80
17296;DHT22;8766;51.480;6.872;2023-03-01T00:41:28;1.80;69.90
17296;DHT22;8766;51.480;6.872;2023-03-01T00:43:55;1.70;69.90
17296;DHT22;8766;51.480;6.872;2023-03-01T00:46:26;1.70;69.90
17296;DHT22;8766;51.480;6.872;2023-03-01T00:48:55;1.70;70.00
17296;DHT22;8766;51.480;6.872;2023-03-01T00:51:24;1.70;70.10
17296;DHT22;8766;51.480;6.872;2023-03-01T00:53:51;1.60;70.10
17296;DHT22;8766;51.480;6.872;2023-03-01T00:56:18;1.60;70.10
17296;DHT22;8766;51.480;6.872;2023-03-01T00:58:46;1.60;70.20
17296;DHT22;8766;51.480;6.872;2023-03-01T01:01:14;1.50;70.20
17296;DHT22;8766;51.480;6.872;2023-03-01T01:03:46;1.50;70.30
17296;DHT22;8766;51.480;6.872;2023-03-01T01:06:15;1.50;70.30
17296;DHT22;8766;51.480;6.872;2023-03-01T01:08:41;1.50;70.30
17296;DHT22;8766;51.480;6.872;2023-03-01T01:11:09;1.40;70.30
17296;DHT22;8766;51.480;6.872;2023-03-01T01:13:36;1.40;70.30
17296;DHT22;8766;51.480;6.872;2023-03-01T01:16:04;1.40;70.40
17296;DHT22;8766;51.480;6.872;2023-03-01T01:18:31;1.40;70.40
17296;DHT22;8766;51.480;6.872;2023-03-01T01:21:03;1.40;70.40
17296;DHT22;8766;51.480;6.872;2023-03-01T01:23:30;1.30;70.40
17296;DHT22;8766;51.480;6.872;2023-03-01T01:25:57;1.30;70.40
17296;DHT22;8766;51.480;6.872;2023-03-01T01:28:24;1.30;70.50
17296;DHT22;8766;51.480;6.872;2023-03-01T01:30:51;1.30;70.50
17296;DHT22;8766;51.480;6.872;2023-03-01T01:33:17;1.30;70.60
17296;DHT22;8766;51.480;6.872;2023-03-01T01:35:45;1.20;70.50
17296;DHT22;8766;51.480;6.872;2023-03-01T01:38:13;1.20;70.50
17296;DHT22;8766;51.480;6.872;2023-03-01T01:40:43;1.20;70.50
17296;DHT22;8766;51.480;6.872;2023-03-01T01:43:18;1.20;70.60
17296;DHT22;8766;51.480;6.872;2023-03-01T01:45:45;1.10;70.60
17296;DHT22;8766;51.480;6.872;2023-03-01T01:48:16;1.10;70.60
17296;DHT22;8766;51.480;6.872;2023-03-01T01:50:45;1.10;70.70
17296;DHT22;8766;51.480;6.872;2023-03-01T01:53:17;1.10;70.70
17296;DHT22;8766;51.480;6.872;2023-03-01T01:55:46;1.10;70.70
17296;DHT22;8766;51.480;6.872;2023-03-01T01:58:16;1.10;70.80
17296;DHT22;8766;51.480;6.872;2023-03-01T02:00:44;1.00;70.70
17296;DHT22;8766;51.480;6.872;2023-03-01T02:03:14;1.00;70.70
17296;DHT22;8766;51.480;6.872;2023-03-01T02:05:46;1.00;70.70
17296;DHT22;8766;51.480;6.872;2023-03-01T02:08:18;1.00;70.70
17296;DHT22;8766;51.480;6.872;2023-03-01T02:10:46;1.00;70.70
17296;DHT22;8766;51.480;6.872;2023-03-01T02:13:14;1.00;70.70
17296;DHT22;8766;51.480;6.872;2023-03-01T02:15:41;1.10;70.80
17296;DHT22;8766;51.480;6.872;2023-03-01T02:18:10;1.00;70.60
17296;DHT22;8766;51.480;6.872;2023-03-01T02:20:44;1.10;70.70
17296;DHT22;8766;51.480;6.872;2023-03-01T02:23:16;1.10;70.60
17296;DHT22;8766;51.480;6.872;2023-03-01T02:25:49;1.10;70.50
17296;DHT22;8766;51.480;6.872;2023-03-01T02:28:25;1.10;70.50
17296;DHT22;8766;51.480;6.872;2023-03-01T02:30:53;1.00;70.60
17296;DHT22;8766;51.480;6.872;2023-03-01T02:33:39;1.00;70.50
17296;DHT22;8766;51.480;6.872;2023-03-01T02:36:09;1.00;70.50
17296;DHT22;8766;51.480;6.872;2023-03-01T02:38:37;1.00;70.60
17296;DHT22;8766;51.480;6.872;2023-03-01T02:41:06;1.00;70.60
17296;DHT22;8766;51.480;6.872;2023-03-01T02:43:34;1.00;70.70
17296;DHT22;8766;51.480;6.872;2023-03-01T02:46:04;0.90;70.60
17296;DHT22;8766;51.480;6.872;2023-03-01T02:48:40;0.90;70.70
17296;DHT22;8766;51.480;6.872;2023-03-01T02:51:14;0.90;70.70
17296;DHT22;8766;51.480;6.872;2023-03-01T02:53:50;0.90;70.80
17296;DHT22;8766;51.480;6.872;2023-03-01T02:56:20;0.90;70.80
17296;DHT22;8766;51.480;6.872;2023-03-01T02:58:49;0.90;70.80
17296;DHT22;8766;51.480;6.872;2023-03-01T03:01:17;0.80;70.70
17296;DHT22;8766;51.480;6.872;2023-03-01T03:03:44;0.80;70.70
17296;DHT22;8766;51.480;6.872;2023-03-01T03:06:12;0.80;70.80
17296;DHT22;8766;51.480;6.872;2023-03-01T03:08:39;0.80;70.90
17296;DHT22;8766;51.480;6.872;2023-03-01T03:11:06;0.70;70.80
17296;DHT22;8766;51.480;6.872;2023-03-01T03:13:33;0.70;70.90
17296;DHT22;8766;51.480;6.872;2023-03-01T03:16:02;0.70;70.90
17296;DHT22;8766;51.480;6.872;2023-03-01T03:18:30;0.70;71.00
17296;DHT22;8766;51.480;6.872;2023-03-01T03:20:56;0.70;71.00
17296;DHT22;8766;51.480;6.872;2023-03-01T03:23:23;0.70;70.90
17296;DHT22;8766;51.480;6.872;2023-03-01T03:25:50;0.70;70.90
17296;DHT22;8766;51.480;6.872;2023-03-01T03:28:18;0.70;70.90
17296;DHT22;8766;51.480;6.872;2023-03-01T03:30:45;0.70;70.90
17296;DHT22;8766;51.480;6.872;2023-03-01T03:33:13;0.70;70.90
17296;DHT22;8766;51.480;6.872;2023-03-01T03:35:43;0.70;71.00
17296;DHT22;8766;51.480;6.872;2023-03-01T03:38:12;0.70;71.00
17296;DHT22;8766;51.480;6.872;2023-03-01T03:40:43;0.70;70.90
17296;DHT22;8766;51.480;6.872;2023-03-01T03:43:13;0.70;70.90
17296;DHT22;8766;51.480;6.872;2023-03-01T03:45:40;0.70;70.90
17296;DHT22;8766;51.480;6.872;2023-03-01T03:48:08;0.70;70.90
17296;DHT22;8766;51.480;6.872;2023-03-01T03:50:38;0.70;70.80
17296;DHT22;8766;51.480;6.872;2023-03-01T03:53:06;0.70;70.80
17296;DHT22;8766;51.480;6.872;2023-03-01T03:55:34;0.70;70.80
17296;DHT22;8766;51.480;6.872;2023-03-01T03:58:02;0.60;70.80
17296;DHT22;8766;51.480;6.872;2023-03-01T04:00:33;0.60;70.80
17296;DHT22;8766;51.480;6.872;2023-03-01T04:03:00;0.60;70.80
17296;DHT22;8766;51.480;6.872;2023-03-01T04:05:27;0.60;70.90
17296;DHT22;8766;51.480;6.872;2023-03-01T04:07:56;0.60;70.90
17296;DHT22;8766;51.480;6.872;2023-03-01T04:10:35;0.60;70.90
17296;DHT22;8766;51.480;6.872;2023-03-01T04:13:03;0.60;71.00
17296;DHT22;8766;51.480;6.872;2023-03-01T04:15:31;0.60;71.00
17296;DHT22;8766;51.480;6.872;2023-03-01T04:17:58;0.60;71.00
17296;DHT22;8766;51.480;6.872;2023-03-01T04:20:27;0.50;70.90
17296;DHT22;8766;51.480;6.872;2023-03-01T04:23:05;0.50;71.00
17296;DHT22;8766;51.480;6.872;2023-03-01T04:25:40;0.50;71.00
17296;DHT22;8766;51.480;6.872;2023-03-01T04:28:07;0.50;71.00
17296;DHT22;8766;51.480;6.872;2023-03-01T04:30:35;0.50;71.00
17296;DHT22;8766;51.480;6.872;2023-03-01T04:33:03;0.50;71.00
17296;DHT22;8766;51.480;6.872;2023-03-01T04:35:30;0.50;71.00
17296;DHT22;8766;51.480;6.872;2023-03-01T04:37:58;0.40;71.00
17296;DHT22;8766;51.480;6.872;2023-03-01T04:40:26;0.40;71.10
17296;DHT22;8766;51.480;6.872;2023-03-01T04:42:53;0.40;71.10
17296;DHT22;8766;51.480;6.872;2023-03-01T04:45:20;0.40;71.10
17296;DHT22;8766;51.480;6.872;2023-03-01T04:47:47;0.40;71.10
17296;DHT22;8766;51.480;6.872;2023-03-01T04:50:15;0.30;71.10
17296;DHT22;8766;51.480;6.872;2023-03-01T04:52:46;0.30;71.10
17296;DHT22;8766;51.480;6.872;2023-03-01T04:55:14;0.30;71.20
17296;DHT22;8766;51.480;6.872;2023-03-01T04:57:41;0.30;71.30
17296;DHT22;8766;51.480;6.872;2023-03-01T05:00:11;0.30;71.30
17296;DHT22;8766;51.480;6.872;2023-03-01T05:02:48;0.20;71.30
17296;DHT22;8766;51.480;6.872;2023-03-01T05:05:19;0.20;71.30
17296;DHT22;8766;51.480;6.872;2023-03-01T05:07:47;0.20;71.30
17296;DHT22;8766;51.480;6.872;2023-03-01T05:10:15;0.20;71.30
17296;DHT22;8766;51.480;6.872;2023-03-01T05:12:42;0.20;71.40
17296;DHT22;8766;51.480;6.872;2023-03-01T05:15:10;0.20;71.40
17296;DHT22;8766;51.480;6.872;2023-03-01T05:17:37;0.10;71.30
17296;DHT22;8766;51.480;6.872;2023-03-01T05:20:04;0.20;71.40
17296;DHT22;8766;51.480;6.872;2023-03-01T05:22:34;0.10;71.30
17296;DHT22;8766;51.480;6.872;2023-03-01T05:25:01;0.10;71.40
17296;DHT22;8766;51.480;6.872;2023-03-01T05:27:29;0.10;71.40
17296;DHT22;8766;51.480;6.872;2023-03-01T05:29:56;0.10;71.40
17296;DHT22;8766;51.480;6.872;2023-03-01T05:32:23;0.10;71.40
17296;DHT22;8766;51.480;6.872;2023-03-01T05:34:50;0.10;71.50
17296;DHT22;8766;51.480;6.872;2023-03-01T05:37:17;0.10;71.50
17296;DHT22;8766;51.480;6.872;2023-03-01T05:39:45;0.10;71.50
17296;DHT22;8766;51.480;6.872;2023-03-01T05:42:12;0.10;71.50
17296;DHT22;8766;51.480;6.872;2023-03-01T05:44:40;0.10;71.40
17296;DHT22;8766;51.480;6.872;2023-03-01T05:47:07;0.10;71.50
17296;DHT22;8766;51.480;6.872;2023-03-01T05:49:34;0.10;71.50
17296;DHT22;8766;51.480;6.872;2023-03-01T05:52:01;0.10;71.50
17296;DHT22;8766;51.480;6.872;2023-03-01T05:54:28;0.10;71.50
17296;DHT22;8766;51.480;6.872;2023-03-01T05:56:54;0.10;71.50
17296;DHT22;8766;51.480;6.872;2023-03-01T05:59:22;0.00;71.40
17296;DHT22;8766;51.480;6.872;2023-03-01T06:01:50;0.00;71.50
17296;DHT22;8766;51.480;6.872;2023-03-01T06:04:17;0.00;71.50
17296;DHT22;8766;51.480;6.872;2023-03-01T06:06:43;0.00;71.50
17296;DHT22;8766;51.480;6.872;2023-03-01T06:09:10;0.00;71.50
17296;DHT22;8766;51.480;6.872;2023-03-01T06:11:37;0.00;71.50
17296;DHT22;8766;51.480;6.872;2023-03-01T06:14:05;0.00;71.50
17296;DHT22;8766;51.480;6.872;2023-03-01T06:16:33;-0.10;71.50
17296;DHT22;8766;51.480;6.872;2023-03-01T06:19:01;-0.10;71.50
17296;DHT22;8766;51.480;6.872;2023-03-01T06:21:28;-0.10;71.50
17296;DHT22;8766;51.480;6.872;2023-03-01T06:23:55;0.00;71.50
17296;DHT22;8766;51.480;6.872;2023-03-01T06:26:22;0.00;71.50
17296;DHT22;8766;51.480;6.872;2023-03-01T06:28:48;0.00;71.40
17296;DHT22;8766;51.480;6.872;2023-03-01T06:31:16;0.10;71.30
17296;DHT22;8766;51.480;6.872;2023-03-01T06:33:43;0.10;71.20
17296;DHT22;8766;51.480;6.872;2023-03-01T06:36:11;0.10;71.20
17296;DHT22;8766;51.480;6.872;2023-03-01T06:38:38;0.20;71.20
17296;DHT22;8766;51.480;6.872;2023-03-01T06:41:06;0.10;71.10
17296;DHT22;8766;51.480;6.872;2023-03-01T06:43:33;0.20;71.10
17296;DHT22;8766;51.480;6.872;2023-03-01T06:46:00;0.20;71.00
17296;DHT22;8766;51.480;6.872;2023-03-01T06:48:30;0.30;71.00
17296;DHT22;8766;51.480;6.872;2023-03-01T06:50:58;0.30;70.90
17296;DHT22;8766;51.480;6.872;2023-03-01T06:53:26;0.30;70.80
17296;DHT22;8766;51.480;6.872;2023-03-01T06:55:54;0.30;70.80
17296;DHT22;8766;51.480;6.872;2023-03-01T06:58:21;0.40;70.80
17296;DHT22;8766;51.480;6.872;2023-03-01T07:00:48;0.40;70.70
17296;DHT22;8766;51.480;6.872;2023-03-01T07:03:15;0.50;70.60
17296;DHT22;8766;51.480;6.872;2023-03-01T07:05:42;0.50;70.60
17296;DHT22;8766;51.480;6.872;2023-03-01T07:08:10;0.50;70.50
17296;DHT22;8766;51.480;6.872;2023-03-01T07:10:38;0.60;70.40
17296;DHT22;8766;51.480;6.872;2023-03-01T07:13:05;0.60;70.30
17296;DHT22;8766;51.480;6.872;2023-03-01T07:15:32;0.70;70.30
17296;DHT22;8766;51.480;6.872;2023-03-01T07:17:59;0.80;70.20
17296;DHT22;8766;51.480;6.872;2023-03-01T07:20:26;0.90;70.00
17296;DHT22;8766;51.480;6.872;2023-03-01T07:22:53;1.20;69.70
17296;DHT22;8766;51.480;6.872;2023-03-01T07:25:22;1.50;69.20
17296;DHT22;8766;51.480;6.872;2023-03-01T07:27:50;1.90;68.30
17296;DHT22;8766;51.480;6.872;2023-03-01T07:30:18;2.20;67.60
17296;DHT22;8766;51.480;6.872;2023-03-01T07:32:45;2.30;67.00
17296;DHT22;8766;51.480;6.872;2023-03-01T07:35:12;2.30;66.80
17296;DHT22;8766;51.480;6.872;2023-03-01T07:37:40;2.30;66.90
17296;DHT22;8766;51.480;6.872;2023-03-01T07:40:09;2.40;67.00
17296;DHT22;8766;51.480;6.872;2023-03-01T07:42:36;2.60;66.80
17296;DHT22;8766;51.480;6.872;2023-03-01T07:45:06;2.80;66.50
17296;DHT22;8766;51.480;6.872;2023-03-01T07:47:33;3.30;65.90
17296;DHT22;8766;51.480;6.872;2023-03-01T07:50:00;3.60;64.80
17296;DHT22;8766;51.480;6.872;2023-03-01T07:52:28;3.80;64.40
17296;DHT22;8766;51.480;6.872;2023-03-01T07:54:55;3.70;64.20
17296;DHT22;8766;51.480;6.872;2023-03-01T07:57:21;3.80;64.50
17296;DHT22;8766;51.480;6.872;2023-03-01T07:59:48;3.80;64.30
17296;DHT22;8766;51.480;6.872;2023-03-01T08:02:16;3.70;64.40
17296;DHT22;8766;51.480;6.872;2023-03-01T08:04:43;3.70;64.60
17296;DHT22;8766;51.480;6.872;2023-03-01T08:07:10;3.80;64.50
17296;DHT22;8766;51.480;6.872;2023-03-01T08:09:37;3.70;64.60
17296;DHT22;8766;51.480;6.872;2023-03-01T08:12:04;3.50;65.00
17296;DHT22;8766;51.480;6.872;2023-03-01T08:14:31;3.30;65.40
17296;DHT22;8766;51.480;6.872;2023-03-01T08:16:58;3.10;66.00
17296;DHT22;8766;51.480;6.872;2023-03-01T08:19:26;3.20;66.40
17296;DHT22;8766;51.480;6.872;2023-03-01T08:21:53;3.60;66.00
17296;DHT22;8766;51.480;6.872;2023-03-01T08:24:20;4.30;65.20
17296;DHT22;8766;51.480;6.872;2023-03-01T08:26:48;5.20;63.20
17296;DHT22;8766;51.480;6.872;2023-03-01T08:29:15;5.80;61.70
17296;DHT22;8766;51.480;6.872;2023-03-01T08:31:42;5.80;61.10
17296;DHT22;8766;51.480;6.872;2023-03-01T08:34:11;5.90;61.00
17296;DHT22;8766;51.480;6.872;2023-03-01T08:36:40;6.20;61.00
17296;DHT22;8766;51.480;6.872;2023-03-01T08:39:09;6.80;60.20
17296;DHT22;8766;51.480;6.872;2023-03-01T08:41:36;7.90;58.60
17296;DHT22;8766;51.480;6.872;2023-03-01T08:44:05;8.80;57.00
17296;DHT22;8766;51.480;6.872;2023-03-01T08:46:33;9.40;56.10
17296;DHT22;8766;51.480;6.872;2023-03-01T08:49:03;9.90;55.50
17296;DHT22;8766;51.480;6.872;2023-03-01T08:51:31;10.50;54.80
17296;DHT22;8766;51.480;6.872;2023-03-01T08:54:03;11.30;53.90
17296;DHT22;8766;51.480;6.872;2023-03-01T08:56:30;11.70;53.20
17296;DHT22;8766;51.480;6.872;2023-03-01T08:58:57;12.20;52.80
17296;DHT22;8766;51.480;6.872;2023-03-01T09:01:24;12.70;52.40
17296;DHT22;8766;51.480;6.872;2023-03-01T09:03:51;13.20;51.90
17296;DHT22;8766;51.480;6.872;2023-03-01T09:06:18;14.00;51.20
17296;DHT22;8766;51.480;6.872;2023-03-01T09:08:47;14.60;50.40
17296;DHT22;8766;51.480;6.872;2023-03-01T09:11:17;15.10;49.80
17296;DHT22;8766;51.480;6.872;2023-03-01T09:13:45;15.60;49.40
17296;DHT22;8766;51.480;6.872;2023-03-01T09:16:13;15.80;49.30
17296;DHT22;8766;51.480;6.872;2023-03-01T09:18:40;16.10;49.60
17296;DHT22;8766;51.480;6.872;2023-03-01T09:21:08;16.50;48.90
17296;DHT22;8766;51.480;6.872;2023-03-01T09:23:37;16.70;48.80
17296;DHT22;8766;51.480;6.872;2023-03-01T09:26:05;16.70;48.90
17296;DHT22;8766;51.480;6.872;2023-03-01T09:28:33;16.50;49.20
17296;DHT22;8766;51.480;6.872;2023-03-01T09:31:00;16.60;49.50
17296;DHT22;8766;51.480;6.872;2023-03-01T09:33:29;16.60;49.60
17296;DHT22;8766;51.480;6.872;2023-03-01T09:35:57;16.90;49.40
17296;DHT22;8766;51.480;6.872;2023-03-01T09:38:24;17.20;49.10
17296;DHT22;8766;51.480;6.872;2023-03-01T09:40:51;17.30;49.10
17296;DHT22;8766;51.480;6.872;2023-03-01T09:43:23;17.50;49.00
17296;DHT22;8766;51.480;6.872;2023-03-01T09:45:54;17.80;49.30
17296;DHT22;8766;51.480;6.872;2023-03-01T09:48:26;18.00;48.60
17296;DHT22;8766;51.480;6.872;2023-03-01T09:50:53;18.20;48.60
17296;DHT22;8766;51.480;6.872;2023-03-01T09:53:22;17.80;48.90
17296;DHT22;8766;51.480;6.872;2023-03-01T09:55:53;17.50;49.80
17296;DHT22;8766;51.480;6.872;2023-03-01T09:58:41;17.30;50.00
17296;DHT22;8766;51.480;6.872;2023-03-01T10:01:29;17.20;50.30
17296;DHT22;8766;51.480;6.872;2023-03-01T10:04:18;17.30;50.10
17296;DHT22;8766;51.480;6.872;2023-03-01T10:06:55;17.40;49.90
17296;DHT22;8766;51.480;6.872;2023-03-01T10:09:24;17.30;49.80
17296;DHT22;8766;51.480;6.872;2023-03-01T10:11:53;17.20;49.60
17296;DHT22;8766;51.480;6.872;2023-03-01T10:14:30;17.00;49.60
17296;DHT22;8766;51.480;6.872;2023-03-01T10:17:03;16.60;50.00
17296;DHT22;8766;51.480;6.872;2023-03-01T10:19:33;16.20;50.10
17296;DHT22;8766;51.480;6.872;2023-03-01T10:22:09;15.90;50.50
17296;DHT22;8766;51.480;6.872;2023-03-01T10:24:37;15.40;50.70
17296;DHT22;8766;51.480;6.872;2023-03-01T10:27:08;15.00;50.90
17296;DHT22;8766;51.480;6.872;2023-03-01T10:29:46;14.40;51.60
17296;DHT22;8766;51.480;6.872;2023-03-01T10:32:17;13.60;52.80
17296;DHT22;8766;51.480;6.872;2023-03-01T10:34:44;12.70;54.20
17296;DHT22;8766;51.480;6.872;2023-03-01T10:37:13;12.00;55.40
17296;DHT22;8766;51.480;6.872;2023-03-01T10:39:58;11.20;56.70
17296;DHT22;8766;51.480;6.872;2023-03-01T10:42:29;10.50;58.00
17296;DHT22;8766;51.480;6.872;2023-03-01T10:44:58;10.00;58.90
17296;DHT22;8766;51.480;6.872;2023-03-01T10:47:27;9.60;59.60
17296;DHT22;8766;51.480;6.872;2023-03-01T10:49:57;9.20;60.10
17296;DHT22;8766;51.480;6.872;2023-03-01T10:52:35;9.00;60.50
17296;DHT22;8766;51.480;6.872;2023-03-01T10:55:19;8.80;60.80
17296;DHT22;8766;51.480;6.872;2023-03-01T10:57:49;8.60;61.20
17296;DHT22;8766;51.480;6.872;2023-03-01T11:00:20;8.40;61.40
17296;DHT22;8766;51.480;6.872;2023-03-01T11:03:01;8.30;61.50
17296;DHT22;8766;51.480;6.872;2023-03-01T11:05:28;8.20;61.60
17296;DHT22;8766;51.480;6.872;2023-03-01T11:07:57;8.20;61.60
17296;DHT22;8766;51.480;6.872;2023-03-01T11:10:26;8.10;61.50
17296;DHT22;8766;51.480;6.872;2023-03-01T11:13:05;8.00;61.50
17296;DHT22;8766;51.480;6.872;2023-03-01T11:15:32;8.00;61.50
17296;DHT22;8766;51.480;6.872;2023-03-01T11:18:00;8.00;61.50
17296;DHT22;8766;51.480;6.872;2023-03-01T11:20:32;8.00;61.40
17296;DHT22;8766;51.480;6.872;2023-03-01T11:23:02;7.90;61.30
17296;DHT22;8766;51.480;6.872;2023-03-01T11:25:33;7.90;61.30
17296;DHT22;8766;51.480;6.872;2023-03-01T11:28:04;7.90;61.30
17296;DHT22;8766;51.480;6.872;2023-03-01T11:30:35;7.90;61.20
17296;DHT22;8766;51.480;6.872;2023-03-01T11:33:13;7.80;61.20
17296;DHT22;8766;51.480;6.872;2023-03-01T11:35:47;7.80;61.20
17296;DHT22;8766;51.480;6.872;2023-03-01T11:38:20;7.80;61.10
17296;DHT22;8766;51.480;6.872;2023-03-01T11:40:52;7.80;61.00
17296;DHT22;8766;51.480;6.872;2023-03-01T11:43:26;7.90;61.00
17296;DHT22;8766;51.480;6.872;2023-03-01T11:49:00;7.90;60.70
17296;DHT22;8766;51.480;6.872;2023-03-01T11:51:41;7.90;60.80
17296;DHT22;8766;51.480;6.872;2023-03-01T11:54:27;7.90;60.70
17296;DHT22;8766;51.480;6.872;2023-03-01T11:57:01;7.90;60.70
17296;DHT22;8766;51.480;6.872;2023-03-01T11:59:45;7.90;60.60
17296;DHT22;8766;51.480;6.872;2023-03-01T12:02:47;7.90;60.50
17296;DHT22;8766;51.480;6.872;2023-03-01T12:05:28;7.90;60.40
17296;DHT22;8766;51.480;6.872;2023-03-01T12:08:05;8.00;60.30
17296;DHT22;8766;51.480;6.872;2023-03-01T12:10:40;8.00;60.20
17296;DHT22;8766;51.480;6.872;2023-03-01T12:16:13;8.00;60.10
17296;DHT22;8766;51.480;6.872;2023-03-01T12:19:03;8.00;60.00
17296;DHT22;8766;51.480;6.872;2023-03-01T12:21:43;8.00;60.00
17296;DHT22;8766;51.480;6.872;2023-03-01T12:24:35;8.00;60.00
17296;DHT22;8766;51.480;6.872;2023-03-01T12:27:17;8.10;59.90
17296;DHT22;8766;51.480;6.872;2023-03-01T12:29:51;8.10;59.90
17296;DHT22;8766;51.480;6.872;2023-03-01T12:32:35;8.10;59.80
17296;DHT22;8766;51.480;6.872;2023-03-01T12:35:29;8.10;59.80
17296;DHT22;8766;51.480;6.872;2023-03-01T12:38:12;8.10;59.90
17296;DHT22;8766;51.480;6.872;2023-03-01T12:41:07;8.10;59.80
17296;DHT22;8766;51.480;6.872;2023-03-01T12:43:51;8.10;59.70
17296;DHT22;8766;51.480;6.872;2023-03-01T12:46:28;8.20;59.60
17296;DHT22;8766;51.480;6.872;2023-03-01T12:49:05;8.20;59.60
17296;DHT22;8766;51.480;6.872;2023-03-01T12:51:36;8.20;59.50
17296;DHT22;8766;51.480;6.872;2023-03-01T12:54:14;8.20;59.40
17296;DHT22;8766;51.480;6.872;2023-03-01T12:56:42;8.20;59.40
17296;DHT22;8766;51.480;6.872;2023-03-01T12:59:15;8.30;59.40
17296;DHT22;8766;51.480;6.872;2023-03-01T13:01:51;8.30;59.30
17296;DHT22;8766;51.480;6.872;2023-03-01T13:04:33;8.30;59.30
17296;DHT22;8766;51.480;6.872;2023-03-01T13:07:15;8.30;59.20
17296;DHT22;8766;51.480;6.872;2023-03-01T13:09:50;8.30;59.30
17296;DHT22;8766;51.480;6.872;2023-03-01T13:12:44;8.30;59.20
17296;DHT22;8766;51.480;6.872;2023-03-01T13:15:32;8.30;59.30
17296;DHT22;8766;51.480;6.872;2023-03-01T13:18:01;8.30;59.30
17296;DHT22;8766;51.480;6.872;2023-03-01T13:20:45;8.30;59.30
17296;DHT22;8766;51.480;6.872;2023-03-01T13:23:24;8.30;59.30
17296;DHT22;8766;51.480;6.872;2023-03-01T13:26:04;8.30;59.30
17296;DHT22;8766;51.480;6.872;2023-03-01T13:28:51;8.30;59.20
17296;DHT22;8766;51.480;6.872;2023-03-01T13:34:50;8.30;59.10
17296;DHT22;8766;51.480;6.872;2023-03-01T13:37:25;8.40;59.10
17296;DHT22;8766;51.480;6.872;2023-03-01T13:39:55;8.40;59.00
17296;DHT22;8766;51.480;6.872;2023-03-01T13:42:40;8.40;59.00
17296;DHT22;8766;51.480;6.872;2023-03-01T13:45:34;8.30;59.00
17296;DHT22;8766;51.480;6.872;2023-03-01T13:48:08;8.30;59.00
17296;DHT22;8766;51.480;6.872;2023-03-01T13:50:51;8.40;59.10
17296;DHT22;8766;51.480;6.872;2023-03-01T13:53:20;8.30;59.00
17296;DHT22;8766;51.480;6.872;2023-03-01T13:55:50;8.30;59.10
17296;DHT22;8766;51.480;6.872;2023-03-01T13:58:23;8.20;59.10
17296;DHT22;8766;51.480;6.872;2023-03-01T14:00:56;8.20;59.20
17296;DHT22;8766;51.480;6.872;2023-03-01T14:03:24;8.30;59.20
17296;DHT22;8766;51.480;6.872;2023-03-01T14:06:00;8.30;59.10
17296;DHT22;8766;51.480;6.872;2023-03-01T14:08:30;8.30;59.10
17296;DHT22;8766;51.480;6.872;2023-03-01T14:14:02;8.30;59.20
17296;DHT22;8766;51.480;6.872;2023-03-01T14:16:39;8.20;59.10
17296;DHT22;8766;51.480;6.872;2023-03-01T14:19:15;8.20;59.10
17296;DHT22;8766;51.480;6.872;2023-03-01T14:21:44;8.20;59.10
17296;DHT22;8766;51.480;6.872;2023-03-01T14:24:18;8.20;59.10
17296;DHT22;8766;51.480;6.872;2023-03-01T14:26:46;8.20;59.10
17296;DHT22;8766;51.480;6.872;2023-03-01T14:29:35;8.20;59.10
17296;DHT22;8766;51.480;6.872;2023-03-01T14:32:10;8.20;59.10
17296;DHT22;8766;51.480;6.872;2023-03-01T14:34:42;8.30;59.10
17296;DHT22;8766;51.480;6.872;2023-03-01T14:37:11;8.30;59.00
17296;DHT22;8766;51.480;6.872;2023-03-01T14:39:38;8.30;59.00
17296;DHT22;8766;51.480;6.872;2023-03-01T14:42:05;8.30;58.90
17296;DHT22;8766;51.480;6.872;2023-03-01T14:44:34;8.30;58.90
17296;DHT22;8766;51.480;6.872;2023-03-01T14:47:03;8.40;58.90
17296;DHT22;8766;51.480;6.872;2023-03-01T14:49:31;8.40;58.80
17296;DHT22;8766;51.480;6.872;2023-03-01T14:52:01;8.40;58.80
17296;DHT22;8766;51.480;6.872;2023-03-01T14:54:35;8.40;58.80
17296;DHT22;8766;51.480;6.872;2023-03-01T14:57:03;8.40;58.90
17296;DHT22;8766;51.480;6.872;2023-03-01T14:59:30;8.40;58.80
17296;DHT22;8766;51.480;6.872;2023-03-01T15:02:01;8.40;58.80
17296;DHT22;8766;51.480;6.872;2023-03-01T15:04:29;8.40;58.80
17296;DHT22;8766;51.480;6.872;2023-03-01T15:06:57;8.40;58.80
17296;DHT22;8766;51.480;6.872;2023-03-01T15:09:32;8.40;58.80
17296;DHT22;8766;51.480;6.872;2023-03-01T15:12:01;8.50;58.70
17296;DHT22;8766;51.480;6.872;2023-03-01T15:14:48;8.50;58.70
17296;DHT22;8766;51.480;6.872;2023-03-01T15:17:26;8.50;58.60
17296;DHT22;8766;51.480;6.872;2023-03-01T15:19:54;8.50;58.60
17296;DHT22;8766;51.480;6.872;2023-03-01T15:22:23;8.50;58.60
17296;DHT22;8766;51.480;6.872;2023-03-01T15:24:52;8.50;58.70
17296;DHT22;8766;51.480;6.872;2023-03-01T15:27:21;8.40;58.70
17296;DHT22;8766;51.480;6.872;2023-03-01T15:29:50;8.50;58.70
17296;DHT22;8766;51.480;6.872;2023-03-01T15:32:28;8.50;58.70
17296;DHT22;8766;51.480;6.872;2023-03-01T15:34:56;8.50;58.70
17296;DHT22;8766;51.480;6.872;2023-03-01T15:37:40;8.50;58.70
17296;DHT22;8766;51.480;6.872;2023-03-01T15:40:21;8.40;58.80
17296;DHT22;8766;51.480;6.872;2023-03-01T15:42:57;8.40;58.70
17296;DHT22;8766;51.480;6.872;2023-03-01T15:45:26;8.40;58.70
17296;DHT22;8766;51.480;6.872;2023-03-01T15:47:56;8.40;58.70
17296;DHT22;8766;51.480;6.872;2023-03-01T15:50:26;8.40;58.80
17296;DHT22;8766;51.480;6.872;2023-03-01T15:52:53;8.40;58.80
17296;DHT22;8766;51.480;6.872;2023-03-01T15:55:22;8.30;58.80
17296;DHT22;8766;51.480;6.872;2023-03-01T15:57:50;8.30;58.90
17296;DHT22;8766;51.480;6.872;2023-03-01T16:00:25;8.20;59.00
17296;DHT22;8766;51.480;6.872;2023-03-01T16:02:52;8.20;59.10
17296;DHT22;8766;51.480;6.872;2023-03-01T16:05:23;8.10;59.20
17296;DHT22;8766;51.480;6.872;2023-03-01T16:07:50;8.10;59.30
17296;DHT22;8766;51.480;6.872;2023-03-01T16:10:18;8.00;59.40
17296;DHT22;8766;51.480;6.872;2023-03-01T16:12:45;7.90;59.50
17296;DHT22;8766;51.480;6.872;2023-03-01T16:15:15;7.90;59.60
17296;DHT22;8766;51.480;6.872;2023-03-01T16:17:43;7.80;59.70
17296;DHT22;8766;51.480;6.872;2023-03-01T16:20:11;7.70;59.80
17296;DHT22;8766;51.480;6.872;2023-03-01T16:22:42;7.70;60.00
17296;DHT22;8766;51.480;6.872;2023-03-01T16:25:10;7.60;60.00
17296;DHT22;8766;51.480;6.872;2023-03-01T16:27:38;7.50;60.10
17296;DHT22;8766;51.480;6.872;2023-03-01T16:30:06;7.50;60.30
17296;DHT22;8766;51.480;6.872;2023-03-01T16:32:33;7.40;60.30
17296;DHT22;8766;51.480;6.872;2023-03-01T16:34:59;7.40;60.50